Time;durP1;ratioP1;P1;durP2;ratioP2;P2;SDS_P1;SDS_P2;PMS_P1;PMS_P2;Temp;Humidity;BMP_temperature;BMP_pressure;BME280_temperature;BME280_humidity;BME280_pressure;Samples;Min_cycle;Max_cycle;Signal;HPM_P1;HPM_P2
2022/12/11 00:01:31;;;;;;;1.20;0.98;;;;;;;17.55;32.50;100256.97;5078230;28;20020;-86
2022/12/11 00:03:57;;;;;;;0.80;0.77;;;;;;;17.67;32.38;100273.19;5040663;28;20032;-87
2022/12/11 00:06:25;;;;;;;1.70;1.00;;;;;;;17.65;32.55;100272.59;5055735;28;20135;-86
2022/12/11 00:08:52;;;;;;;1.20;1.00;;;;;;;17.60;32.44;100267.09;5060613;28;20111;-87
2022/12/11 00:11:18;;;;;;;1.10;1.00;;;;;;;17.60;32.44;100269.78;5078613;28;20073;-87
2022/12/11 00:13:43;;;;;;;1.33;1.20;;;;;;;17.65;32.23;100276.13;5062333;28;20502;-86
2022/12/11 00:16:09;;;;;;;1.98;1.30;;;;;;;17.64;32.27;100279.06;5079036;28;20034;-87
2022/12/11 00:18:35;;;;;;;1.42;1.33;;;;;;;17.52;32.11;100260.16;5055818;28;20025;-87
2022/12/11 00:21:02;;;;;;;1.40;1.30;;;;;;;17.64;32.44;100281.75;5077671;28;20016;-86
2022/12/11 00:23:30;;;;;;;2.03;1.35;;;;;;;17.55;32.59;100272.38;5061077;28;20104;-86
2022/12/11 00:25:55;;;;;;;2.00;1.40;;;;;;;17.65;32.29;100288.81;5060587;28;20472;-86
2022/12/11 00:28:30;;;;;;;2.30;1.67;;;;;;;17.63;32.40;100290.94;5055574;28;20028;-87
2022/12/11 00:30:55;;;;;;;;;;;;;;;17.74;32.41;100291.97;5071703;27;20031;-86
2022/12/11 00:33:21;;;;;;;1.50;1.40;;;;;;;17.56;32.14;100274.03;5089744;27;19916;-87
2022/12/11 00:35:50;;;;;;;1.65;1.45;;;;;;;17.48;32.02;100277.09;5086622;27;20031;-87
2022/12/11 00:38:16;;;;;;;1.60;1.48;;;;;;;17.51;32.36;100279.31;5073983;27;20022;-86
2022/12/11 00:40:42;;;;;;;1.83;1.55;;;;;;;17.60;32.56;100294.09;5073603;27;20080;-86
2022/12/11 00:43:09;;;;;;;2.15;1.20;;;;;;;17.41;32.47;100261.00;5087531;27;20038;-86
2022/12/11 00:45:42;;;;;;;1.35;1.25;;;;;;;17.52;32.37;100283.66;5102573;27;20029;-87
2022/12/11 00:48:08;;;;;;;1.40;1.30;;;;;;;17.52;32.23;100272.84;5078236;27;20514;-86
2022/12/11 00:50:33;;;;;;;1.42;1.30;;;;;;;17.66;32.34;100301.28;5077215;27;20122;-86
2022/12/11 00:52:59;;;;;;;1.23;1.13;;;;;;;17.56;32.43;100284.84;5076986;27;20122;-87
2022/12/11 00:55:27;;;;;;;1.50;1.40;;;;;;;17.53;32.34;100279.91;5070530;27;20091;-86
2022/12/11 00:57:53;;;;;;;2.55;1.40;;;;;;;17.60;32.25;100281.41;5093521;27;20434;-87
2022/12/11 01:00:19;;;;;;;1.60;1.35;;;;;;;17.52;32.22;100284.47;5092915;27;20488;-86
2022/12/11 01:02:45;;;;;;;1.35;1.20;;;;;;;17.55;32.01;100304.81;5068731;28;20230;-87
2022/12/11 01:05:10;;;;;;;1.45;1.27;;;;;;;17.64;32.28;100319.59;5075481;27;20039;-87
2022/12/11 01:07:36;;;;;;;1.30;1.20;;;;;;;17.51;32.34;100306.34;5073300;27;20145;-87
2022/12/11 01:12:47;;;;;;;1.92;1.40;;;;;;;17.70;32.36;100324.06;5088473;27;20538;-87
2022/12/11 01:15:16;;;;;;;1.55;1.40;;;;;;;17.63;32.30;100323.38;5085992;28;20027;-87
2022/12/11 01:17:41;;;;;;;1.45;1.20;;;;;;;17.65;32.33;100326.66;5084133;28;20110;-86
2022/12/11 01:20:07;;;;;;;2.15;1.30;;;;;;;17.72;32.14;100331.94;5119667;27;20546;-86
2022/12/11 01:22:36;;;;;;;1.30;1.20;;;;;;;17.70;32.33;100321.38;5073160;28;20030;-86
2022/12/11 01:25:05;;;;;;;1.50;1.30;;;;;;;17.73;32.30;100320.06;5088266;28;20031;-86
2022/12/11 01:27:30;;;;;;;1.65;1.50;;;;;;;17.73;32.21;100326.31;5102228;28;20028;-86
2022/12/11 01:29:56;;;;;;;1.23;1.13;;;;;;;17.66;32.23;100317.50;5054689;28;20076;-86
2022/12/11 01:32:25;;;;;;;1.48;1.38;;;;;;;17.74;32.14;100321.72;5041743;28;20513;-87
2022/12/11 01:34:50;;;;;;;1.50;1.27;;;;;;;17.75;32.28;100332.28;5044315;28;20400;-86
2022/12/11 01:37:16;;;;;;;1.48;1.30;;;;;;;17.70;32.19;100326.78;5072682;28;20308;-87
2022/12/11 01:39:44;;;;;;;1.38;1.15;;;;;;;17.69;32.21;100333.22;5044270;28;20598;-87
2022/12/11 01:42:15;;;;;;;1.25;1.00;;;;;;;17.68;32.44;100319.94;5060661;28;20028;-86
2022/12/11 01:44:40;;;;;;;1.90;1.30;;;;;;;17.77;32.21;100338.28;5061382;28;20031;-87
2022/12/11 01:47:06;;;;;;;1.50;1.17;;;;;;;17.83;32.00;100326.53;5077442;28;20432;-87
2022/12/11 01:49:32;;;;;;;1.33;1.20;;;;;;;17.78;32.11;100334.53;5035760;28;20123;-87
2022/12/11 01:52:06;;;;;;;1.20;1.10;;;;;;;17.78;32.19;100337.22;5050932;28;20093;-86
2022/12/11 01:54:31;;;;;;;1.10;1.00;;;;;;;17.80;31.95;100332.41;5070174;28;20488;-87
2022/12/11 01:57:00;;;;;;;1.45;1.05;;;;;;;17.74;32.17;100333.34;5059529;28;20071;-86
2022/12/11 01:59:26;;;;;;;2.72;1.20;;;;;;;17.77;32.19;100340.16;5060779;28;20032;-86
2022/12/11 02:02:19;;;;;;;1.20;1.10;;;;;;;17.86;31.96;100337.91;5040989;28;20036;-86
2022/12/11 02:04:48;;;;;;;1.60;1.20;;;;;;;17.80;32.12;100345.09;5080223;28;20019;-87
2022/12/11 02:07:14;;;;;;;1.38;1.17;;;;;;;17.83;32.04;100334.63;5063763;28;20028;-86
2022/12/11 02:09:40;;;;;;;2.17;1.40;;;;;;;17.76;32.21;100339.31;5063426;28;20392;-87
2022/12/11 02:12:24;;;;;;;1.05;0.98;;;;;;;17.84;32.31;100344.38;5046753;28;20040;-86
2022/12/11 02:15:09;;;;;;;1.47;1.10;;;;;;;17.87;32.07;100350.38;5074232;28;20255;-87
2022/12/11 02:17:47;;;;;;;0.93;0.88;;;;;;;17.84;32.00;100348.97;5080177;28;20477;-86
2022/12/11 02:20:28;;;;;;;0.90;0.90;;;;;;;17.82;32.18;100360.00;5080540;28;20033;-86
2022/12/11 02:23:08;;;;;;;1.38;1.27;;;;;;;17.83;32.03;100342.75;5081606;28;20491;-86
2022/12/11 02:25:36;;;;;;;1.20;1.10;;;;;;;17.78;32.12;100348.03;5054893;28;20481;-86
2022/12/11 02:28:22;;;;;;;1.30;1.15;;;;;;;17.84;32.12;100347.06;5077689;28;20024;-86
2022/12/11 02:31:03;;;;;;;1.08;0.98;;;;;;;17.84;31.90;100351.66;5061616;28;20431;-86
2022/12/11 02:33:36;;;;;;;1.45;1.00;;;;;;;17.81;31.95;100352.94;5046351;28;20445;-86
2022/12/11 02:36:02;;;;;;;1.40;1.00;;;;;;;17.86;31.97;100349.56;5070885;28;20032;-87
2022/12/11 02:38:37;;;;;;;1.40;1.23;;;;;;;17.76;31.85;100333.09;5044197;28;20220;-86
2022/12/11 02:41:04;;;;;;;1.15;1.05;;;;;;;17.81;31.80;100342.13;5045504;28;20028;-86
2022/12/11 02:43:29;;;;;;;0.80;0.80;;;;;;;17.82;31.97;100348.38;5059060;28;20028;-86
2022/12/11 02:45:55;;;;;;;1.10;1.00;;;;;;;17.80;31.96;100351.31;5081061;28;20099;-86
2022/12/11 02:48:21;;;;;;;0.80;0.80;;;;;;;17.84;32.10;100354.38;5059749;28;20028;-86
2022/12/11 02:50:47;;;;;;;1.42;1.00;;;;;;;17.81;32.11;100350.25;5062511;28;20036;-86
2022/12/11 02:53:15;;;;;;;1.00;0.90;;;;;;;17.82;32.00;100360.00;5063455;28;20477;-86
2022/12/11 02:55:41;;;;;;;1.20;0.93;;;;;;;17.84;31.86;100357.88;5063690;28;20016;-86
2022/12/11 02:58:22;;;;;;;1.60;1.27;;;;;;;17.87;31.81;100356.63;5052932;28;20728;-86
2022/12/11 03:00:48;;;;;;;1.30;1.20;;;;;;;17.90;32.00;100363.44;5040439;28;20067;-87
2022/12/11 03:03:15;;;;;;;1.83;1.23;;;;;;;17.83;31.88;100367.06;5062502;28;20079;-86
2022/12/11 03:05:40;;;;;;;1.15;0.95;;;;;;;17.77;32.06;100351.78;5062985;28;20024;-86
2022/12/11 03:08:06;;;;;;;1.08;0.80;;;;;;;17.70;32.07;100351.09;5066441;28;20053;-86
2022/12/11 03:10:32;;;;;;;1.23;0.90;;;;;;;17.72;31.99;100348.97;5045998;28;20032;-86
2022/12/11 03:13:01;;;;;;;1.02;0.90;;;;;;;17.67;31.96;100337.22;5041886;28;20020;-86
2022/12/11 03:15:42;;;;;;;1.08;0.85;;;;;;;17.83;32.01;100363.53;5063145;28;20024;-86
2022/12/11 03:18:17;;;;;;;0.93;0.90;;;;;;;17.77;32.07;100354.50;5061865;28;20032;-86
2022/12/11 03:20:50;;;;;;;1.20;1.10;;;;;;;17.70;31.84;100350.28;5064702;28;20035;-87
2022/12/11 03:23:47;;;;;;;0.90;0.90;;;;;;;17.88;31.88;100376.38;5066813;28;20028;-86
2022/12/11 03:26:13;;;;;;;0.98;0.90;;;;;;;17.69;31.95;100340.50;5069399;28;20043;-87
2022/12/11 03:28:52;;;;;;;1.08;0.98;;;;;;;17.79;31.83;100360.47;5059769;27;20122;-86
2022/12/11 03:31:42;;;;;;;0.85;0.85;;;;;;;17.86;31.91;100381.19;5102099;27;20026;-87
2022/12/11 03:34:22;;;;;;;1.10;0.93;;;;;;;17.74;31.91;100356.84;5094035;27;20733;-87
2022/12/11 03:36:48;;;;;;;0.85;0.80;;;;;;;17.68;31.90;100355.91;5075954;27;20511;-87
2022/12/11 03:39:29;;;;;;;1.33;1.23;;;;;;;17.76;31.84;100360.13;5100371;27;20102;-86
2022/12/11 03:41:55;;;;;;;1.45;1.10;;;;;;;17.78;31.89;100363.41;5080238;27;20317;-86
2022/12/11 03:44:21;;;;;;;0.95;0.90;;;;;;;17.86;31.72;100379.31;5062310;27;20540;-86
2022/12/11 03:46:47;;;;;;;1.40;1.10;;;;;;;17.70;31.71;100358.38;5069993;27;20034;-86
2022/12/11 03:49:15;;;;;;;0.90;0.90;;;;;;;17.75;31.79;100364.72;5073555;27;20716;-86
2022/12/11 03:51:41;;;;;;;0.98;0.88;;;;;;;17.82;31.84;100373.53;5083970;27;20388;-86
2022/12/11 03:54:07;;;;;;;1.13;1.02;;;;;;;17.76;31.85;100369.06;5088675;27;20464;-86
2022/12/11 03:56:33;;;;;;;1.00;0.90;;;;;;;17.75;31.77;100367.44;5099059;27;20399;-86
2022/12/11 03:58:58;;;;;;;0.80;0.80;;;;;;;17.70;31.79;100361.09;5077145;27;20403;-86
2022/12/11 04:01:24;;;;;;;1.00;0.93;;;;;;;17.68;31.88;100364.03;5082116;27;20110;-86
2022/12/11 04:03:50;;;;;;;1.20;1.10;;;;;;;17.74;31.90;100371.16;5093190;27;20421;-87
2022/12/11 04:06:15;;;;;;;1.27;1.00;;;;;;;17.72;31.89;100372.47;5069094;27;20451;-86
2022/12/11 04:08:41;;;;;;;1.17;1.00;;;;;;;17.71;31.67;100362.72;5078846;27;20379;-86
2022/12/11 04:15:00;;;;;;;1.00;0.90;;;;;;;17.78;31.56;100383.19;5089153;27;20881;-86
2022/12/11 04:16:36;;;;;;;1.80;1.10;;;;;;;17.90;31.85;100393.19;5085175;27;20526;-87
2022/12/11 04:24:31;;;;;;;;;;;;;;;17.96;31.87;100403.06;5087192;27;20138;-86
2022/12/11 04:26:56;;;;;;;0.95;0.95;;;;;;;17.91;31.63;100398.34;5110041;27;20006;-86
2022/12/11 04:29:22;;;;;;;1.33;0.98;;;;;;;17.92;31.68;100400.00;5092024;27;20043;-86
2022/12/11 04:31:49;;;;;;;1.02;1.00;;;;;;;17.94;31.78;100397.06;5110014;27;20400;-86
2022/12/11 04:34:15;;;;;;;1.00;0.90;;;;;;;17.88;31.79;100396.13;5102096;27;20035;-86
2022/12/11 04:36:40;;;;;;;0.88;0.82;;;;;;;17.89;31.62;100402.38;5087621;27;20028;-86
2022/12/11 04:39:06;;;;;;;1.15;1.05;;;;;;;17.92;31.55;100400.00;5071809;27;20059;-86
2022/12/11 04:41:32;;;;;;;1.00;1.00;;;;;;;17.94;31.66;100394.38;5082430;28;20030;-86
2022/12/11 04:43:57;;;;;;;1.05;0.90;;;;;;;17.93;31.74;100392.72;5089273;27;20027;-86
2022/12/11 04:46:23;;;;;;;1.20;1.10;;;;;;;17.95;31.59;100412.22;5089378;27;20023;-86
2022/12/11 04:48:49;;;;;;;1.10;1.00;;;;;;;17.89;31.85;100400.47;5092078;27;20613;-86
2022/12/11 04:51:15;;;;;;;1.25;1.08;;;;;;;17.94;31.60;100405.19;5083415;27;20441;-86
2022/12/11 04:53:41;;;;;;;2.65;0.90;;;;;;;17.97;31.59;100426.31;5076159;27;20023;-86
2022/12/11 04:56:07;;;;;;;0.80;0.80;;;;;;;17.97;31.77;100410.94;5073732;27;20522;-86
2022/12/11 04:58:34;;;;;;;1.13;0.90;;;;;;;18.01;31.49;100414.00;5080056;27;20039;-86
2022/12/11 05:01:05;;;;;;;1.45;1.00;;;;;;;17.92;31.70;100413.53;5061830;27;20121;-86
2022/12/11 05:03:31;;;;;;;0.93;0.93;;;;;;;17.96;31.57;100413.88;5088747;27;20135;-86
2022/12/11 05:06:03;;;;;;;1.05;0.95;;;;;;;17.90;31.74;100410.25;5108713;27;20499;-86
2022/12/11 05:08:29;;;;;;;1.02;1.00;;;;;;;17.86;31.72;100408.22;5084097;27;20177;-87
2022/12/11 05:10:56;;;;;;;1.10;1.00;;;;;;;17.86;31.65;100410.91;5083202;28;20035;-86
2022/12/11 05:13:22;;;;;;;1.20;1.10;;;;;;;17.79;31.67;100400.22;5089228;28;20026;-86
2022/12/11 05:15:47;;;;;;;1.27;1.13;;;;;;;17.76;31.56;100406.88;5072157;28;20414;-86
2022/12/11 05:18:13;;;;;;;1.10;1.00;;;;;;;17.81;31.64;100401.59;5072274;28;20107;-86
2022/12/11 05:20:39;;;;;;;1.20;1.10;;;;;;;17.86;31.67;100413.63;5088890;27;20023;-86
2022/12/11 05:23:04;;;;;;;1.00;0.90;;;;;;;17.82;31.51;100414.06;5076774;28;20099;-86
2022/12/11 05:25:30;;;;;;;1.10;1.00;;;;;;;17.90;31.69;100420.22;5067895;28;20019;-86
2022/12/11 05:27:56;;;;;;;0.98;0.93;;;;;;;17.86;31.59;100416.31;5085795;28;20060;-86
2022/12/11 05:30:21;;;;;;;1.15;1.00;;;;;;;17.82;31.66;100414.06;5070182;28;20043;-86
2022/12/11 05:32:47;;;;;;;1.20;1.10;;;;;;;17.81;31.74;100409.72;5099308;28;20542;-86
2022/12/11 05:35:12;;;;;;;1.65;1.20;;;;;;;17.92;31.64;100431.63;5083678;27;20098;-86
2022/12/11 05:37:38;;;;;;;1.58;1.15;;;;;;;17.96;31.58;100435.50;5113853;27;20538;-86
2022/12/11 05:40:05;;;;;;;1.08;0.98;;;;;;;17.91;31.70;100432.69;5113952;27;20122;-86
2022/12/11 05:42:32;;;;;;;1.10;1.00;;;;;;;17.92;31.33;100431.63;5075004;27;20512;-86
2022/12/11 05:44:57;;;;;;;1.20;1.10;;;;;;;17.96;31.57;100449.03;5093907;27;20569;-86
2022/12/11 05:47:23;;;;;;;1.00;0.95;;;;;;;17.91;31.63;100436.19;5081985;27;20030;-86
2022/12/11 05:49:51;;;;;;;1.10;1.00;;;;;;;17.97;31.58;100442.53;5097711;27;20133;-86
2022/12/11 05:52:17;;;;;;;1.23;0.93;;;;;;;17.87;31.18;100447.72;5078002;27;20526;-86
2022/12/11 05:54:49;;;;;;;1.10;1.00;;;;;;;17.94;31.69;100448.44;5094458;27;20019;-86
2022/12/11 05:57:15;;;;;;;1.10;1.00;;;;;;;17.87;31.74;100450.41;5084066;27;20855;-86
2022/12/11 05:59:41;;;;;;;1.30;1.20;;;;;;;17.71;31.56;100427.59;5073020;27;20027;-86
2022/12/11 06:02:06;;;;;;;1.23;1.13;;;;;;;17.80;31.52;100451.34;5072476;27;20028;-86
2022/12/11 06:04:32;;;;;;;1.45;1.17;;;;;;;17.93;31.45;100457.59;5070538;27;20038;-86
2022/12/11 06:06:58;;;;;;;0.90;0.85;;;;;;;17.78;31.48;100450.75;5072832;27;20038;-86
2022/12/11 06:09:23;;;;;;;1.25;0.90;;;;;;;17.73;31.63;100442.53;5085489;27;20549;-86
2022/12/11 06:11:49;;;;;;;1.50;1.05;;;;;;;17.90;31.63;100469.72;5075433;27;20387;-86
2022/12/11 06:14:15;;;;;;;0.80;0.80;;;;;;;17.90;31.63;100479.69;5090421;27;20505;-86
2022/12/11 06:16:41;;;;;;;1.10;1.00;;;;;;;17.87;31.64;100474.75;5077505;27;20412;-86
2022/12/11 06:19:06;;;;;;;1.30;1.15;;;;;;;17.74;31.55;100459.56;5066927;27;20527;-86
2022/12/11 06:21:35;;;;;;;1.00;0.90;;;;;;;17.86;31.60;100478.50;5097556;27;20114;-86
2022/12/11 06:24:01;;;;;;;1.13;1.02;;;;;;;17.91;31.63;100484.06;5074159;27;20027;-86
2022/12/11 06:26:27;;;;;;;1.20;1.08;;;;;;;17.88;31.62;100488.03;5075875;27;20110;-86
2022/12/11 06:28:53;;;;;;;1.10;1.00;;;;;;;17.83;31.61;100480.63;5077053;27;20058;-86
2022/12/11 06:31:18;;;;;;;1.45;1.10;;;;;;;17.83;31.53;100488.72;5079795;27;20084;-86
2022/12/11 06:33:44;;;;;;;1.30;1.20;;;;;;;17.75;31.56;100477.44;5084659;28;20073;-86
2022/12/11 06:36:13;;;;;;;1.30;1.10;;;;;;;17.81;31.69;100488.09;5067612;28;20052;-86
2022/12/11 06:38:38;;;;;;;1.00;0.90;;;;;;;17.71;31.54;100466.22;5086690;28;20043;-86
2022/12/11 06:41:04;;;;;;;0.88;0.88;;;;;;;17.80;31.70;100474.84;5060309;28;20028;-86
2022/12/11 06:43:34;;;;;;;0.90;0.90;;;;;;;17.79;31.61;100470.50;5079850;28;20030;-87
2022/12/11 06:46:04;;;;;;;0.77;0.77;;;;;;;17.85;31.45;100491.19;5080035;27;20110;-86
2022/12/11 06:48:30;;;;;;;1.10;1.00;;;;;;;17.89;31.49;100484.28;5062771;27;20047;-86
2022/12/11 06:50:56;;;;;;;1.10;1.00;;;;;;;17.89;31.42;100495.09;5073904;28;20035;-86
2022/12/11 06:53:25;;;;;;;1.10;0.95;;;;;;;17.84;31.61;100486.84;5054497;27;20028;-86
2022/12/11 06:55:50;;;;;;;1.08;0.98;;;;;;;17.86;31.50;100483.91;5063819;27;20020;-86
2022/12/11 06:58:16;;;;;;;0.88;0.88;;;;;;;17.89;31.49;100484.28;5057358;28;20726;-86
2022/12/11 07:00:45;;;;;;;1.10;1.00;;;;;;;17.77;31.66;100476.13;5063582;28;20023;-86
2022/12/11 07:03:12;;;;;;;1.00;0.90;;;;;;;17.79;31.21;100482.13;5073837;27;20444;-86
2022/12/11 07:05:38;;;;;;;1.05;1.02;;;;;;;17.86;31.37;100500.97;5069117;27;20089;-86
2022/12/11 07:08:03;;;;;;;0.95;0.88;;;;;;;17.87;31.48;100496.38;5055253;28;20036;-86
2022/12/11 07:10:29;;;;;;;1.10;1.00;;;;;;;17.82;31.52;100497.88;5061462;27;20108;-86
2022/12/11 07:12:55;;;;;;;0.90;0.90;;;;;;;17.81;31.54;100493.50;5090193;28;20045;-86
2022/12/11 07:15:21;;;;;;;1.10;1.00;;;;;;;17.87;31.42;100505.34;5067531;27;20047;-86
2022/12/11 07:17:46;;;;;;;0.88;0.88;;;;;;;17.76;31.59;100484.47;5060973;27;20028;-86
2022/12/11 07:20:13;;;;;;;1.00;0.88;;;;;;;17.78;31.51;100503.97;5065011;27;20636;-86
2022/12/11 07:22:39;;;;;;;1.17;0.88;;;;;;;17.92;31.50;100510.03;5074282;27;20042;-86
2022/12/11 07:25:05;;;;;;;0.80;0.80;;;;;;;17.93;31.40;100533.31;5074803;27;20790;-86
2022/12/11 07:27:30;;;;;;;0.82;0.82;;;;;;;17.86;31.45;100511.78;5059345;27;20016;-86
2022/12/11 07:29:59;;;;;;;0.93;0.90;;;;;;;18.04;31.44;100534.38;5051225;28;20385;-86
2022/12/11 07:32:27;;;;;;;0.73;0.73;;;;;;;17.77;31.38;100497.75;5040810;28;20028;-86
2022/12/11 07:34:56;;;;;;;0.80;0.80;;;;;;;17.87;31.29;100512.59;5061720;28;20512;-87
2022/12/11 07:37:21;;;;;;;0.93;0.90;;;;;;;17.81;31.46;100515.13;5042699;28;20115;-86
2022/12/11 07:39:51;;;;;;;1.30;1.08;;;;;;;17.64;31.17;100489.84;5045494;28;20051;-86
2022/12/11 07:42:17;;;;;;;1.27;1.17;;;;;;;17.60;31.60;100483.28;5047737;28;20036;-86
2022/12/11 07:44:45;;;;;;;1.00;0.90;;;;;;;17.83;31.38;100512.22;5042547;28;20065;-86
2022/12/11 07:47:11;;;;;;;1.10;1.00;;;;;;;17.95;31.29;100547.41;5046710;28;20508;-86
2022/12/11 07:49:37;;;;;;;1.23;0.90;;;;;;;17.76;31.16;100527.72;5049213;28;20032;-86
2022/12/11 07:52:03;;;;;;;0.77;0.77;;;;;;;17.82;31.12;100527.63;5061265;28;20028;-86
2022/12/11 07:54:28;;;;;;;1.20;1.10;;;;;;;17.93;31.37;100544.13;5061924;28;20305;-86
2022/12/11 07:56:54;;;;;;;0.90;0.90;;;;;;;17.88;31.58;100552.09;5073697;28;20166;-86
2022/12/11 07:59:20;;;;;;;1.00;0.90;;;;;;;17.81;31.67;100539.47;5058388;28;20057;-86
2022/12/11 08:01:45;;;;;;;0.85;0.85;;;;;;;17.90;31.43;100560.81;5056603;28;20028;-86
2022/12/11 08:04:17;;;;;;;0.77;0.77;;;;;;;17.77;31.31;100535.59;5053831;28;20516;-85
2022/12/11 08:06:46;;;;;;;0.88;0.70;;;;;;;17.90;31.39;100563.50;5049215;28;20024;-86
2022/12/11 08:09:13;;;;;;;1.33;1.08;;;;;;;17.95;31.43;100558.22;5068482;28;20025;-86
2022/12/11 08:11:42;;;;;;;1.20;1.10;;;;;;;18.00;31.58;100569.16;5050401;28;20043;-86
2022/12/11 08:14:08;;;;;;;1.00;1.00;;;;;;;17.99;31.51;100564.84;5071464;28;20074;-86
2022/12/11 08:16:34;;;;;;;1.30;1.20;;;;;;;17.95;31.51;100569.84;5068872;28;20035;-86
2022/12/11 08:18:59;;;;;;;1.15;0.90;;;;;;;18.02;31.31;100569.75;5071187;28;20028;-86
2022/12/11 08:21:26;;;;;;;1.08;0.88;;;;;;;18.00;31.52;100574.56;5073194;28;20016;-86
2022/12/11 08:23:52;;;;;;;1.13;1.00;;;;;;;17.91;31.20;100554.34;5039912;28;20025;-86
2022/12/11 08:26:22;;;;;;;1.20;1.00;;;;;;;18.05;31.52;100584.72;5059472;28;20052;-86
2022/12/11 08:29:21;;;;;;;0.95;0.90;;;;;;;17.96;31.40;100578.81;5044401;28;20121;-86
2022/12/11 08:31:46;;;;;;;1.23;1.00;;;;;;;17.82;31.50;100565.47;5058313;28;20333;-86
2022/12/11 08:34:13;;;;;;;1.20;1.10;;;;;;;17.94;31.26;100576.34;5061342;28;20392;-86
2022/12/11 08:36:38;;;;;;;1.13;1.02;;;;;;;17.87;31.49;100566.66;5040874;28;20020;-86
2022/12/11 08:39:04;;;;;;;1.00;1.00;;;;;;;17.87;31.40;100567.50;5051384;28;20329;-86
2022/12/11 08:41:30;;;;;;;1.08;1.00;;;;;;;17.82;31.30;100565.47;5047071;28;20058;-86
2022/12/11 08:43:56;;;;;;;1.15;1.05;;;;;;;17.77;31.40;100551.00;5047954;28;20032;-86
2022/12/11 08:46:23;;;;;;;1.45;1.35;;;;;;;17.75;31.24;100566.63;5077141;28;20032;-86
2022/12/11 08:48:49;;;;;;;0.80;0.80;;;;;;;17.84;31.36;100570.63;5050981;28;20024;-86
2022/12/11 08:51:16;;;;;;;1.77;0.98;;;;;;;17.77;31.51;100562.63;5044037;28;20750;-86
2022/12/11 08:53:42;;;;;;;1.08;0.85;;;;;;;17.83;31.35;100579.78;5060336;28;20043;-86
2022/12/11 08:56:10;;;;;;;1.00;0.98;;;;;;;17.87;31.44;100580.19;5060133;28;20032;-86
2022/12/11 08:58:35;;;;;;;1.10;1.00;;;;;;;17.79;31.37;100565.91;5051400;28;20049;-86
2022/12/11 09:01:08;;;;;;;1.23;1.02;;;;;;;17.84;31.41;100571.47;5058856;28;20031;-86
2022/12/11 09:03:35;;;;;;;1.10;1.00;;;;;;;17.86;31.37;100581.22;5043335;28;20113;-86
2022/12/11 09:06:06;;;;;;;1.10;1.00;;;;;;;17.88;31.37;100568.34;5073230;28;20107;-86
2022/12/11 09:08:32;;;;;;;1.10;1.00;;;;;;;17.90;31.23;100569.75;5042418;28;20404;-86
2022/12/11 09:11:02;;;;;;;0.90;0.90;;;;;;;17.87;31.35;100577.47;5064089;28;20036;-86
2022/12/11 09:13:28;;;;;;;1.10;1.00;;;;;;;17.79;31.42;100565.91;5057513;28;20184;-86
2022/12/11 09:15:54;;;;;;;1.10;1.00;;;;;;;17.79;31.42;100571.31;5072809;28;20684;-86
2022/12/11 09:18:19;;;;;;;1.10;1.00;;;;;;;17.90;31.53;100585.13;5059235;28;20513;-86
2022/12/11 09:20:45;;;;;;;1.20;1.10;;;;;;;17.79;31.56;100570.50;5043820;28;20040;-86
2022/12/11 09:23:11;;;;;;;1.05;0.90;;;;;;;17.91;31.33;100587.63;5032125;28;20028;-85
2022/12/11 09:25:39;;;;;;;1.13;1.00;;;;;;;17.91;31.48;100590.31;5054253;28;20111;-86
2022/12/11 09:28:04;;;;;;;0.85;0.85;;;;;;;17.87;31.40;100589.13;5057561;28;20388;-86
2022/12/11 09:30:30;;;;;;;3.20;1.20;;;;;;;17.79;31.50;100579.44;5041950;28;20492;-86
2022/12/11 09:32:57;;;;;;;1.02;0.95;;;;;;;17.89;31.46;100591.63;5057935;28;20318;-86
2022/12/11 09:35:23;;;;;;;1.05;0.98;;;;;;;17.77;31.53;100568.03;5041534;28;20239;-86
2022/12/11 09:37:48;;;;;;;1.13;1.02;;;;;;;17.97;31.40;100597.50;5040942;28;20119;-86
2022/12/11 09:40:14;;;;;;;1.40;1.30;;;;;;;18.01;31.38;100606.00;5061221;28;20464;-86
2022/12/11 09:42:48;;;;;;;1.20;1.10;;;;;;;17.96;31.60;100603.97;5042115;28;20100;-86
2022/12/11 09:45:14;;;;;;;1.05;0.95;;;;;;;17.91;31.49;100592.19;5051318;28;20123;-85
2022/12/11 09:47:41;;;;;;;1.60;1.20;;;;;;;17.86;31.33;100582.06;5056562;28;20056;-86
2022/12/11 09:50:09;;;;;;;1.10;1.00;;;;;;;17.98;31.60;100606.44;5043035;28;20040;-86
2022/12/11 09:52:57;;;;;;;1.20;1.10;;;;;;;17.95;31.54;100607.72;5071007;28;20020;-86
2022/12/11 09:55:24;;;;;;;0.90;0.90;;;;;;;17.97;31.47;100604.78;5076173;28;20062;-86
2022/12/11 09:57:53;;;;;;;1.33;1.20;;;;;;;17.98;31.44;100606.44;5038765;28;20393;-86
2022/12/11 10:00:25;;;;;;;1.10;1.00;;;;;;;17.84;31.36;100600.38;5057260;28;20031;-86
2022/12/11 10:03:18;;;;;;;1.27;1.17;;;;;;;17.99;31.45;100608.09;5040970;28;20512;-86
2022/12/11 10:06:26;;;;;;;1.30;1.20;;;;;;;17.95;31.53;100613.13;5076686;28;20024;-86
2022/12/11 10:09:01;;;;;;;3.22;1.27;;;;;;;17.94;31.45;100616.09;5057708;28;20524;-86
2022/12/11 10:11:41;;;;;;;1.38;1.10;;;;;;;18.00;31.51;100620.56;5076646;28;20127;-86
2022/12/11 10:14:19;;;;;;;1.20;1.10;;;;;;;17.98;31.31;100622.66;5061532;28;20059;-86
2022/12/11 10:16:52;;;;;;;1.10;1.00;;;;;;;17.96;31.44;100619.38;5067218;28;20324;-86
2022/12/11 10:19:44;;;;;;;1.10;1.00;;;;;;;18.02;31.29;100623.84;5041904;28;20032;-86
2022/12/11 10:22:19;;;;;;;1.30;1.20;;;;;;;17.95;31.40;100634.75;5072998;28;20044;-86
2022/12/11 10:24:52;;;;;;;1.25;1.15;;;;;;;17.92;31.63;100634.38;5059030;28;20024;-86
2022/12/11 10:27:38;;;;;;;1.48;1.10;;;;;;;17.99;31.58;100632.44;5042421;28;20035;-86
2022/12/11 10:30:19;;;;;;;1.70;1.30;;;;;;;17.98;31.42;100633.47;5076185;28;20154;-86
2022/12/11 10:33:13;;;;;;;1.23;1.13;;;;;;;18.02;31.47;100630.09;5092116;27;20031;-86
2022/12/11 10:35:52;;;;;;;1.67;1.30;;;;;;;17.95;31.52;100634.75;5082304;27;20077;-86
2022/12/11 10:38:33;;;;;;;2.38;1.45;;;;;;;17.98;31.29;100642.41;5080220;28;20545;-86
2022/12/11 10:41:01;;;;;;;1.38;1.27;;;;;;;17.99;31.46;100640.56;5068623;27;20042;-86
2022/12/11 10:43:44;;;;;;;1.35;1.25;;;;;;;17.97;31.43;100637.22;5094416;27;20042;-86
2022/12/11 10:46:23;;;;;;;1.40;1.20;;;;;;;18.02;31.48;100645.47;5069429;28;20024;-86
2022/12/11 10:48:57;;;;;;;2.58;1.40;;;;;;;18.00;31.50;100647.59;5078824;27;20058;-86
2022/12/11 10:51:34;;;;;;;1.50;1.40;;;;;;;18.01;31.48;100638.44;5068080;27;20055;-86
2022/12/11 10:54:07;;;;;;;1.30;1.17;;;;;;;17.93;31.42;100622.53;5057618;27;20035;-86
2022/12/11 10:56:33;;;;;;;2.75;1.38;;;;;;;17.99;31.45;100633.25;5069702;28;20109;-86
2022/12/11 10:59:23;;;;;;;3.38;1.52;;;;;;;18.01;31.46;100643.84;5060743;27;20481;-86
2022/12/11 11:01:48;;;;;;;1.27;1.17;;;;;;;17.83;31.56;100636.56;5076792;28;20479;-86
2022/12/11 11:04:18;;;;;;;1.58;1.48;;;;;;;17.89;31.33;100618.66;5055295;28;20039;-86
2022/12/11 11:06:48;;;;;;;1.50;1.35;;;;;;;17.98;31.33;100636.19;5064770;27;20587;-86
2022/12/11 11:09:33;;;;;;;1.65;1.40;;;;;;;18.00;31.46;100642.19;5110901;27;20471;-86
2022/12/11 11:11:59;;;;;;;1.63;1.52;;;;;;;17.92;31.61;100632.53;5089058;27;20557;-86
2022/12/11 11:14:24;;;;;;;1.25;1.15;;;;;;;18.06;31.16;100637.72;5088420;27;20028;-86
2022/12/11 11:16:51;;;;;;;1.55;1.30;;;;;;;17.96;31.39;100631.00;5078013;28;20038;-86
2022/12/11 11:19:30;;;;;;;1.40;1.23;;;;;;;18.04;31.34;100637.13;5085145;27;20173;-85
2022/12/11 11:22:06;;;;;;;1.58;1.30;;;;;;;18.06;31.27;100635.03;5079258;27;20111;-86
2022/12/11 11:24:37;;;;;;;1.35;1.25;;;;;;;17.93;31.33;100620.66;5080207;27;20683;-86
2022/12/11 11:27:11;;;;;;;1.67;1.30;;;;;;;17.87;31.66;100642.38;5082998;27;20440;-74
2022/12/11 11:29:37;;;;;;;;;;;;;;;17.65;31.64;100640.97;5114488;27;20067;-88
2022/12/11 11:32:37;;;;;;;2.85;2.00;;;;;;;17.61;31.23;100622.75;5105437;27;20384;-87
2022/12/11 11:35:10;;;;;;;5.78;1.90;;;;;;;17.70;30.73;100637.59;5083487;27;20251;-87
2022/12/11 11:37:39;;;;;;;6.65;2.13;;;;;;;17.70;30.71;100632.19;5102173;27;20038;-87
2022/12/11 11:40:12;;;;;;;7.35;2.40;;;;;;;17.74;30.54;100638.78;5068109;27;20062;-87
2022/12/11 11:43:14;;;;;;;6.10;1.83;;;;;;;17.80;30.63;100637.88;5062828;27;21061;-87
2022/12/11 11:45:56;;;;;;;5.25;2.10;;;;;;;17.69;30.54;100625.13;5024982;27;20035;-87
2022/12/11 11:48:39;;;;;;;4.70;1.98;;;;;;;17.81;30.87;100650.31;5059937;28;20024;-87